createdAt,value
2018-05-04T00:01:57.855Z,16.95
2018-05-04T00:04:25.285Z,16.93
2018-05-04T00:06:52.775Z,16.86
2018-05-04T00:09:20.217Z,16.83
2018-05-04T00:11:47.690Z,16.78
2018-05-04T00:14:15.261Z,16.73
2018-05-04T00:16:42.714Z,16.66
2018-05-04T00:19:10.243Z,16.78
2018-05-04T00:21:38.578Z,16.83
2018-05-04T00:24:06.023Z,16.74
2018-05-04T00:26:33.499Z,16.82
2018-05-04T00:29:01.172Z,16.64
2018-05-04T00:31:28.674Z,16.51
2018-05-04T00:33:56.146Z,16.53
2018-05-04T00:36:23.620Z,16.65
2018-05-04T00:38:51.048Z,16.55
2018-05-04T00:41:18.511Z,16.54
2018-05-04T00:43:46.745Z,16.48
2018-05-04T00:46:14.440Z,16.48
2018-05-04T00:48:41.967Z,16.44
2018-05-04T00:51:09.428Z,16.38
2018-05-04T00:53:48.596Z,16.25
2018-05-04T00:56:16.107Z,16.21
2018-05-04T00:58:43.591Z,16.29
2018-05-04T01:01:11.049Z,16.30
2018-05-04T01:03:38.508Z,16.27
2018-05-04T01:06:05.973Z,16.36
2018-05-04T01:08:33.440Z,16.31
2018-05-04T01:26:30.358Z,15.98
2018-05-04T01:28:57.829Z,16.03
2018-05-04T01:31:25.318Z,16.02
2018-05-04T01:33:52.855Z,16.07
2018-05-04T01:36:20.294Z,16.07
2018-05-04T01:38:47.850Z,15.87
2018-05-04T01:41:15.776Z,15.75
2018-05-04T01:43:43.206Z,15.81
2018-05-04T01:46:10.691Z,15.60
2018-05-04T01:48:38.266Z,15.79
2018-05-04T01:51:05.841Z,15.82
2018-05-04T01:53:33.299Z,15.81
2018-05-04T01:56:00.796Z,15.81
2018-05-04T01:58:28.266Z,15.79
2018-05-04T02:00:55.785Z,15.80
2018-05-04T02:03:23.229Z,15.81
2018-05-04T02:05:50.720Z,15.85
2018-05-04T02:08:18.168Z,15.75
2018-05-04T02:10:45.698Z,15.72
2018-05-04T02:13:13.121Z,15.73
2018-05-04T02:15:40.912Z,15.79
2018-05-04T02:18:08.424Z,15.78
2018-05-04T02:20:35.877Z,15.70
2018-05-04T02:23:03.335Z,15.71
2018-05-04T02:25:30.782Z,15.72
2018-05-04T02:27:58.275Z,15.68
2018-05-04T02:30:25.765Z,15.58
2018-05-04T02:32:53.233Z,15.64
2018-05-04T02:35:20.727Z,15.63
2018-05-04T02:37:48.289Z,15.41
2018-05-04T02:40:15.770Z,15.53
2018-05-04T02:42:44.297Z,15.44
2018-05-04T02:45:11.844Z,15.50
2018-05-04T02:47:39.534Z,15.50
2018-05-04T02:50:07.065Z,15.42
2018-05-04T02:52:34.499Z,15.58
2018-05-04T02:55:01.979Z,15.65
2018-05-04T02:57:29.583Z,15.66
2018-05-04T02:59:57.280Z,15.73
2018-05-04T03:02:24.859Z,15.70
2018-05-04T03:04:52.213Z,15.63
2018-05-04T03:07:19.765Z,15.60
2018-05-04T03:09:47.237Z,15.62
2018-05-04T03:12:14.715Z,15.61
2018-05-04T03:14:42.158Z,15.54
2018-05-04T03:17:09.600Z,15.52
2018-05-04T03:19:37.223Z,15.53
2018-05-04T03:22:04.803Z,15.52
2018-05-04T03:24:32.138Z,15.53
2018-05-04T03:26:59.688Z,15.54
2018-05-04T03:29:27.156Z,15.51
2018-05-04T03:31:54.611Z,15.52
2018-05-04T03:34:22.939Z,15.54
2018-05-04T03:36:50.425Z,15.50
2018-05-04T03:39:17.871Z,15.52
2018-05-04T03:41:45.329Z,15.50
2018-05-04T03:44:12.800Z,15.53
2018-05-04T03:46:40.396Z,15.57
2018-05-04T03:49:07.906Z,15.61
2018-05-04T03:51:35.373Z,15.56
2018-05-04T03:54:02.843Z,15.54
2018-05-04T03:56:30.326Z,15.49
2018-05-04T03:59:09.589Z,15.54
2018-05-04T04:01:49.609Z,15.57
2018-05-04T04:04:17.115Z,15.57
2018-05-04T04:06:44.653Z,15.54
2018-05-04T04:09:12.077Z,15.49
2018-05-04T04:11:39.545Z,15.40
2018-05-04T04:14:07.045Z,15.45
2018-05-04T04:16:34.517Z,15.48
2018-05-04T04:19:01.998Z,15.42
2018-05-04T04:21:29.437Z,15.49
2018-05-04T04:23:56.899Z,15.50
2018-05-04T04:26:24.326Z,15.50
2018-05-04T04:28:51.824Z,15.46
2018-05-04T04:31:19.256Z,15.27
2018-05-04T04:33:46.809Z,15.32
2018-05-04T04:36:14.260Z,15.38
2018-05-04T04:38:41.724Z,15.41
2018-05-04T04:41:09.153Z,15.23
2018-05-04T04:43:36.640Z,15.26
2018-05-04T04:46:04.132Z,15.29
2018-05-04T04:48:31.567Z,15.29
2018-05-04T04:50:59.050Z,15.30
2018-05-04T04:53:27.485Z,15.27
2018-05-04T04:55:54.987Z,15.25
2018-05-04T04:58:22.419Z,15.23
2018-05-04T05:00:49.922Z,15.03
2018-05-04T05:03:17.351Z,15.04
2018-05-04T05:05:44.870Z,14.71
2018-05-04T05:08:12.385Z,14.68
2018-05-04T05:10:39.939Z,14.89
2018-05-04T05:13:07.382Z,14.93
2018-05-04T05:15:34.846Z,15.03
2018-05-04T05:18:02.300Z,15.19
2018-05-04T05:20:29.756Z,15.31
2018-05-04T05:22:57.199Z,15.47
2018-05-04T05:25:24.688Z,15.44
2018-05-04T05:27:52.208Z,15.45
2018-05-04T05:30:19.710Z,15.49
2018-05-04T05:32:47.297Z,15.45
2018-05-04T05:35:14.733Z,15.33
2018-05-04T05:37:42.184Z,15.46
2018-05-04T05:40:10.635Z,15.51
2018-05-04T05:42:38.095Z,15.63
2018-05-04T05:45:05.564Z,15.81
2018-05-04T05:47:33.066Z,16.13
2018-05-04T05:50:00.543Z,16.27
2018-05-04T05:52:27.996Z,16.46
2018-05-04T05:54:55.486Z,16.79
2018-05-04T05:57:22.963Z,17.22
2018-05-04T05:59:50.437Z,16.90
2018-05-04T06:02:18.433Z,17.15
2018-05-04T06:04:45.919Z,17.03
2018-05-04T06:07:13.478Z,16.94
2018-05-04T06:09:41.108Z,16.74
2018-05-04T06:12:08.707Z,16.64
2018-05-04T06:14:36.460Z,16.58
2018-05-04T06:17:03.950Z,16.37
2018-05-04T06:19:31.402Z,16.52
2018-05-04T06:21:58.863Z,16.61
2018-05-04T06:24:26.346Z,16.36
2018-05-04T06:26:53.793Z,16.58
2018-05-04T06:29:21.258Z,16.82
2018-05-04T06:31:48.683Z,17.23
2018-05-04T06:34:16.131Z,17.27
2018-05-04T06:36:43.602Z,17.22
2018-05-04T06:39:11.049Z,17.40
2018-05-04T06:41:38.512Z,17.56
2018-05-04T06:44:05.955Z,17.59
2018-05-04T06:46:33.428Z,17.65
2018-05-04T06:49:00.871Z,17.45
2018-05-04T06:51:28.342Z,17.06
2018-05-04T06:53:55.774Z,17.35
2018-05-04T06:56:23.241Z,17.41
2018-05-04T06:58:50.673Z,17.70
2018-05-04T07:01:18.223Z,17.68
2018-05-04T07:03:45.697Z,17.90
2018-05-04T07:06:13.156Z,17.64
2018-05-04T07:08:40.615Z,17.79
2018-05-04T07:11:08.065Z,17.78
2018-05-04T07:13:35.520Z,17.85
2018-05-04T07:16:03.003Z,18.03
2018-05-04T07:18:30.462Z,18.23
2018-05-04T07:20:57.893Z,18.31
2018-05-04T07:23:25.351Z,18.23
2018-05-04T07:25:52.796Z,18.27
2018-05-04T07:28:20.258Z,18.34
2018-05-04T07:30:47.702Z,18.58
2018-05-04T07:33:15.177Z,18.43
2018-05-04T07:35:42.672Z,18.61
2018-05-04T07:38:10.111Z,18.91
2018-05-04T07:40:37.739Z,18.89
2018-05-04T07:43:05.191Z,19.02
2018-05-04T07:45:32.649Z,19.12
2018-05-04T07:48:00.086Z,19.49
2018-05-04T07:50:27.572Z,19.73
2018-05-04T07:52:55.006Z,19.84
2018-05-04T07:55:22.425Z,19.73
2018-05-04T07:57:49.891Z,19.68
2018-05-04T08:00:17.364Z,19.62
2018-05-04T08:02:44.843Z,19.81
2018-05-04T08:05:12.294Z,19.90
2018-05-04T08:07:39.754Z,19.94
2018-05-04T08:10:07.217Z,19.88
2018-05-04T08:12:34.698Z,19.83
2018-05-04T08:15:02.248Z,19.69
2018-05-04T08:17:29.697Z,19.79
2018-05-04T08:19:57.199Z,19.95
2018-05-04T08:22:24.667Z,20.24
2018-05-04T08:24:52.121Z,20.28
2018-05-04T08:27:19.576Z,20.80
2018-05-04T08:29:47.015Z,21.11
2018-05-04T08:32:14.435Z,21.10
2018-05-04T08:34:41.904Z,21.18
2018-05-04T08:37:09.363Z,21.07
2018-05-04T08:39:36.887Z,20.95
2018-05-04T08:42:04.372Z,21.23
2018-05-04T08:44:31.861Z,21.37
2018-05-04T08:46:59.291Z,21.79
2018-05-04T08:49:26.740Z,21.84
2018-05-04T08:51:54.169Z,21.83
2018-05-04T08:54:21.647Z,21.87
2018-05-04T08:56:49.079Z,21.89
2018-05-04T08:59:16.513Z,21.76
2018-05-04T09:01:44.034Z,22.02
2018-05-04T09:04:11.486Z,21.91
2018-05-04T09:06:38.979Z,22.13
2018-05-04T09:09:06.425Z,22.04
2018-05-04T09:11:33.977Z,21.92
2018-05-04T09:14:01.430Z,21.87
2018-05-04T09:16:28.897Z,21.98
2018-05-04T09:18:56.484Z,22.03
2018-05-04T09:21:24.060Z,22.24
2018-05-04T09:23:51.502Z,22.49
2018-05-04T09:26:18.957Z,22.63
2018-05-04T09:28:46.447Z,22.70
2018-05-04T09:31:13.896Z,22.78
2018-05-04T09:33:41.834Z,23.00
2018-05-04T09:36:09.268Z,23.02
2018-05-04T09:38:36.722Z,23.20
2018-05-04T09:41:04.274Z,23.09
2018-05-04T09:43:31.830Z,23.00
2018-05-04T09:45:59.315Z,23.00
2018-05-04T09:48:26.763Z,22.80
2018-05-04T09:50:54.220Z,22.88
2018-05-04T09:53:21.732Z,22.91
2018-05-04T09:55:49.162Z,22.44
2018-05-04T09:58:16.642Z,22.61
2018-05-04T10:00:44.075Z,22.92
2018-05-04T10:03:11.532Z,22.98
2018-05-04T10:05:39.058Z,23.03
2018-05-04T10:08:06.517Z,22.92
2018-05-04T10:10:34.028Z,23.36
2018-05-04T10:13:01.470Z,23.39
2018-05-04T10:15:28.945Z,23.52
2018-05-04T10:17:56.389Z,23.60
2018-05-04T10:20:23.869Z,23.76
2018-05-04T10:22:51.362Z,23.63
2018-05-04T10:25:18.839Z,23.86
2018-05-04T10:27:46.334Z,23.98
2018-05-04T10:30:13.834Z,23.86
2018-05-04T10:32:41.976Z,23.59
2018-05-04T10:35:09.509Z,23.89
2018-05-04T10:37:37.123Z,23.84
2018-05-04T10:40:04.617Z,24.05
2018-05-04T10:42:32.159Z,24.24
2018-05-04T10:44:59.610Z,24.23
2018-05-04T10:47:27.059Z,24.17
2018-05-04T10:49:54.613Z,24.33
2018-05-04T10:52:24.087Z,24.31
2018-05-04T10:54:51.575Z,24.66
2018-05-04T10:57:19.200Z,24.78
2018-05-04T10:59:46.657Z,24.70
2018-05-04T11:02:14.238Z,24.64
2018-05-04T11:04:41.731Z,24.56
2018-05-04T11:07:09.203Z,24.53
2018-05-04T11:09:36.668Z,24.59
2018-05-04T11:12:04.192Z,24.30
2018-05-04T11:14:31.573Z,24.25
2018-05-04T11:16:59.029Z,23.81
2018-05-04T11:19:26.596Z,23.96
2018-05-04T11:21:54.020Z,24.18
2018-05-04T11:24:21.540Z,24.13
2018-05-04T11:26:49.025Z,24.12
2018-05-04T11:29:16.627Z,24.11
2018-05-04T11:31:44.088Z,24.25
2018-05-04T11:34:12.274Z,24.08
2018-05-04T11:36:39.770Z,23.93
2018-05-04T11:39:07.308Z,24.25
2018-05-04T11:41:34.832Z,24.25
2018-05-04T11:44:02.323Z,24.50
2018-05-04T11:46:30.029Z,24.71
2018-05-04T11:48:57.488Z,24.63
2018-05-04T11:51:25.031Z,24.44
2018-05-04T11:53:52.570Z,24.39
2018-05-04T11:56:20.027Z,24.29
2018-05-04T11:58:47.448Z,24.28
2018-05-04T12:01:14.923Z,24.31
2018-05-04T12:03:42.522Z,24.69
2018-05-04T12:06:10.361Z,24.89
2018-05-04T12:08:37.806Z,25.13
2018-05-04T12:11:05.276Z,25.36
2018-05-04T12:13:32.750Z,25.35
2018-05-04T12:16:00.238Z,25.25
2018-05-04T12:18:27.799Z,25.03
2018-05-04T12:20:55.300Z,25.14
2018-05-04T12:23:22.945Z,25.08
2018-05-04T12:25:50.403Z,25.06
2018-05-04T12:28:18.216Z,24.66
2018-05-04T12:30:45.723Z,24.63
2018-05-04T12:33:13.175Z,24.75
2018-05-04T12:35:40.812Z,24.91
2018-05-04T12:38:08.287Z,24.97
2018-05-04T12:40:35.760Z,24.96
2018-05-04T12:43:03.330Z,24.78
2018-05-04T12:45:30.812Z,24.68
2018-05-04T12:47:58.272Z,24.86
2018-05-04T12:50:25.776Z,25.02
2018-05-04T12:52:53.220Z,24.94
2018-05-04T12:55:20.707Z,24.92
2018-05-04T12:57:48.243Z,25.23
2018-05-04T13:00:15.719Z,25.10
2018-05-04T13:02:43.309Z,25.23
2018-05-04T13:05:10.819Z,25.31
2018-05-04T13:07:38.648Z,25.60
2018-05-04T13:10:06.987Z,25.78
2018-05-04T13:12:35.368Z,26.23
2018-05-04T13:15:03.189Z,26.34
2018-05-04T13:17:30.809Z,26.19
2018-05-04T13:19:58.301Z,26.91
2018-05-04T13:22:25.839Z,27.16
2018-05-04T13:24:53.336Z,26.60
2018-05-04T13:27:21.026Z,26.21
2018-05-04T13:29:48.592Z,26.10
2018-05-04T13:32:16.173Z,25.96
2018-05-04T13:34:43.738Z,26.06
2018-05-04T13:37:11.325Z,25.97
2018-05-04T13:39:38.921Z,26.42
2018-05-04T13:42:06.426Z,26.39
2018-05-04T13:44:34.023Z,26.64
2018-05-04T13:47:01.618Z,26.18
2018-05-04T13:49:29.205Z,25.88
2018-05-04T13:51:56.656Z,25.79
2018-05-04T13:54:27.980Z,26.02
2018-05-04T13:56:55.759Z,25.73
2018-05-04T13:59:23.426Z,25.58
2018-05-04T14:01:50.942Z,25.44
2018-05-04T14:04:18.525Z,25.47
2018-05-04T14:06:48.709Z,25.39
2018-05-04T14:09:16.967Z,25.37
2018-05-04T14:11:44.757Z,25.53
2018-05-04T14:14:12.232Z,25.46
2018-05-04T14:16:39.755Z,25.65
2018-05-04T14:19:07.207Z,25.85
2018-05-04T14:21:34.941Z,25.82
2018-05-04T14:24:02.396Z,25.76
2018-05-04T14:26:29.849Z,25.63
2018-05-04T14:28:57.408Z,25.73
2018-05-04T14:31:24.941Z,25.56
2018-05-04T14:33:52.508Z,25.60
2018-05-04T14:36:20.104Z,25.58
2018-05-04T14:38:49.455Z,25.63
2018-05-04T14:41:17.537Z,25.67
2018-05-04T14:43:45.068Z,25.67
2018-05-04T14:46:12.659Z,25.44
2018-05-04T14:48:40.290Z,25.25
2018-05-04T14:51:08.673Z,24.94
2018-05-04T14:53:36.224Z,24.89
2018-05-04T14:56:03.737Z,24.88
2018-05-04T14:58:32.598Z,25.03
2018-05-04T15:01:00.061Z,25.13
2018-05-04T15:03:28.268Z,25.15
2018-05-04T15:05:55.876Z,25.06
2018-05-04T15:08:23.474Z,25.15
2018-05-04T15:10:51.123Z,25.15
2018-05-04T15:13:18.869Z,25.09
2018-05-04T15:15:46.361Z,24.75
2018-05-04T15:18:13.912Z,24.69
2018-05-04T15:20:41.426Z,24.55
2018-05-04T15:23:09.385Z,24.55
2018-05-04T15:25:36.949Z,24.65
2018-05-04T15:28:04.502Z,24.50
2018-05-04T15:30:32.131Z,24.38
2018-05-04T15:32:59.661Z,24.30
2018-05-04T15:35:27.292Z,24.19
2018-05-04T15:37:54.871Z,24.12
2018-05-04T15:40:22.842Z,24.10
2018-05-04T15:42:50.250Z,24.01
2018-05-04T15:45:17.758Z,24.07
2018-05-04T15:47:45.293Z,23.97
2018-05-04T15:50:19.273Z,23.74
2018-05-04T15:52:47.382Z,23.87
2018-05-04T15:55:14.861Z,23.89
2018-05-04T15:57:42.416Z,23.74
2018-05-04T16:00:09.944Z,23.77
2018-05-04T16:02:37.706Z,23.77
2018-05-04T16:05:05.197Z,23.76
2018-05-04T16:07:32.735Z,23.56
2018-05-04T16:10:00.242Z,23.72
2018-05-04T16:12:27.764Z,23.76
2018-05-04T16:14:55.237Z,23.72
2018-05-04T16:17:22.754Z,23.57
2018-05-04T16:19:50.272Z,23.30
2018-05-04T16:22:17.806Z,23.31
2018-05-04T16:24:45.271Z,23.37
2018-05-04T16:27:12.757Z,23.51
2018-05-04T16:29:40.240Z,23.32
2018-05-04T16:32:07.719Z,23.29
2018-05-04T16:34:35.526Z,23.33
2018-05-04T16:37:03.168Z,23.08
2018-05-04T16:39:30.853Z,23.18
2018-05-04T16:41:59.523Z,23.22
2018-05-04T16:44:27.029Z,23.20
2018-05-04T16:47:00.166Z,23.23
2018-05-04T16:49:27.736Z,23.23
2018-05-04T16:51:55.208Z,23.22
2018-05-04T16:54:22.661Z,23.02
2018-05-04T16:56:50.260Z,23.03
2018-05-04T16:59:17.758Z,23.00
2018-05-04T17:01:46.360Z,22.98
2018-05-04T17:04:14.015Z,22.92
2018-05-04T17:06:41.642Z,22.95
2018-05-04T17:09:09.259Z,22.87
2018-05-04T17:11:36.626Z,22.91
2018-05-04T17:14:04.223Z,22.83
2018-05-04T19:55:55.914Z,18.55
2018-05-04T19:58:23.384Z,18.62
2018-05-04T20:00:50.933Z,18.73
2018-05-04T20:03:18.410Z,18.81
2018-05-04T20:05:46.046Z,18.89
2018-05-04T20:08:13.591Z,18.96
2018-05-04T20:10:41.138Z,18.94
2018-05-04T20:13:09.365Z,19.08
2018-05-04T20:15:36.903Z,19.14
2018-05-04T20:18:05.218Z,19.33
2018-05-04T20:20:32.690Z,19.32
2018-05-04T20:23:00.183Z,19.28
2018-05-04T20:25:27.781Z,19.14
2018-05-04T20:27:55.323Z,19.02
2018-05-04T20:30:22.792Z,19.01
2018-05-04T20:32:50.258Z,19.08
2018-05-04T20:35:17.723Z,19.15
2018-05-04T20:37:45.287Z,19.11
2018-05-04T20:40:12.987Z,19.11
2018-05-04T20:42:40.469Z,19.04
2018-05-04T20:45:07.943Z,19.02
2018-05-04T20:47:35.436Z,19.00
2018-05-04T20:50:02.871Z,18.90
2018-05-04T20:52:30.417Z,18.94
2018-05-04T20:54:58.016Z,19.05
2018-05-04T20:57:26.525Z,19.12
2018-05-04T20:59:54.023Z,19.16
2018-05-04T21:02:21.695Z,19.21
2018-05-04T21:04:49.286Z,19.28
2018-05-04T21:07:16.926Z,19.36
2018-05-04T21:09:44.440Z,19.38
2018-05-04T21:12:12.401Z,19.37
2018-05-04T21:14:39.887Z,19.41
2018-05-04T21:17:07.335Z,19.37
2018-05-04T21:19:34.818Z,19.31
2018-05-04T21:22:02.317Z,19.35
2018-05-04T21:24:29.857Z,19.27
2018-05-04T21:26:57.489Z,19.16
2018-05-04T21:29:25.260Z,19.11
2018-05-04T21:31:52.908Z,19.06
2018-05-04T21:34:20.444Z,18.98
2018-05-04T21:36:48.010Z,19.08
2018-05-04T21:39:15.499Z,19.09
2018-05-04T21:41:43.110Z,19.10
2018-05-04T21:44:10.544Z,19.12
2018-05-04T21:46:38.106Z,18.99
2018-05-04T21:49:05.611Z,18.96
2018-05-04T21:51:33.169Z,18.82
2018-05-04T21:54:00.851Z,18.85
2018-05-04T21:56:28.347Z,18.79
2018-05-04T21:58:55.805Z,18.66
2018-05-04T22:01:23.273Z,18.73
2018-05-04T22:03:50.755Z,18.77
2018-05-04T22:06:18.458Z,18.80
2018-05-04T22:08:48.641Z,18.65
2018-05-04T22:11:17.057Z,18.57
2018-05-04T22:13:44.563Z,18.51
2018-05-04T22:16:12.009Z,18.43
2018-05-04T22:18:40.913Z,18.36
2018-05-04T22:21:08.512Z,18.46
2018-05-04T22:23:36.096Z,18.43
2018-05-04T22:26:03.534Z,18.41
2018-05-04T22:28:31.111Z,18.49
2018-05-04T22:30:58.705Z,18.41
2018-05-04T22:33:26.249Z,18.45
2018-05-04T22:35:53.747Z,18.43
2018-05-04T22:38:21.354Z,18.46
2018-05-04T22:40:48.837Z,18.46
2018-05-04T22:43:16.778Z,18.40
2018-05-04T22:45:44.434Z,18.36
2018-05-04T22:48:12.014Z,18.22
2018-05-04T22:50:39.598Z,18.13
2018-05-04T22:53:07.113Z,18.04
2018-05-04T22:55:34.565Z,17.97
2018-05-04T22:58:02.637Z,17.94
2018-05-04T23:00:30.188Z,17.93
2018-05-04T23:02:57.690Z,17.85
2018-05-04T23:05:25.313Z,17.82
2018-05-04T23:07:52.817Z,17.83
2018-05-04T23:10:21.988Z,17.86
2018-05-04T23:12:49.421Z,17.91
2018-05-04T23:15:17.249Z,17.80
2018-05-04T23:17:44.819Z,17.78
2018-05-04T23:20:12.307Z,17.75
2018-05-04T23:22:39.873Z,17.62
2018-05-04T23:25:07.380Z,17.59
2018-05-04T23:27:35.384Z,17.68
2018-05-04T23:30:03.026Z,17.61
2018-05-04T23:32:30.594Z,17.59
2018-05-04T23:34:58.193Z,17.57
2018-05-04T23:37:25.755Z,17.43
2018-05-04T23:39:53.283Z,17.48
2018-05-04T23:42:20.845Z,17.53
2018-05-04T23:44:48.302Z,17.51
2018-05-04T23:47:15.882Z,17.43
2018-05-04T23:49:44.157Z,17.42
2018-05-04T23:52:11.640Z,17.29
2018-05-04T23:54:39.184Z,17.36
2018-05-04T23:57:06.756Z,17.32
2018-05-04T23:59:34.245Z,17.12
